createdAt,value
2022-10-15T00:04:20.345Z,66726.38
2022-10-15T00:09:24.146Z,66717.91
2022-10-15T00:14:30.246Z,66665.03
2022-10-15T00:19:34.208Z,66655.50
2022-10-15T00:24:38.058Z,66674.25
2022-10-15T00:29:43.527Z,66719.53
2022-10-15T00:34:47.661Z,66614.63
2022-10-15T00:39:51.835Z,66692.09
2022-10-15T00:44:59.909Z,66678.56
2022-10-15T00:50:07.528Z,66644.69
2022-10-15T00:55:15.317Z,66661.34
2022-10-15T01:00:21.910Z,66696.34
2022-10-15T01:05:25.942Z,66660.59
2022-10-15T01:10:37.577Z,66704.41
2022-10-15T01:15:49.942Z,66644.59
2022-10-15T01:21:12.576Z,66589.91
2022-10-15T01:26:46.220Z,66635.69
2022-10-15T01:32:04.030Z,66637.84
2022-10-15T01:37:12.987Z,66619.84
2022-10-15T01:42:24.745Z,66597.34
2022-10-15T01:47:37.015Z,66614.94
2022-10-15T01:52:43.336Z,66612.94
2022-10-15T01:57:48.763Z,66597.88
2022-10-15T02:02:54.270Z,66513.88
2022-10-15T02:08:07.315Z,66539.66
2022-10-15T02:13:31.209Z,66536.53
2022-10-15T02:18:42.552Z,66658.13
2022-10-15T02:23:52.942Z,66620.78
2022-10-15T02:29:02.955Z,66621.56
2022-10-15T02:34:12.059Z,66571.03
2022-10-15T02:39:20.324Z,66530.63
2022-10-15T02:44:24.122Z,66530.78
2022-10-15T02:49:29.355Z,66550.13
2022-10-15T02:54:33.291Z,66563.56
2022-10-15T02:59:38.155Z,66557.56
2022-10-15T03:04:43.692Z,66552.72
2022-10-15T03:09:51.518Z,66519.88
2022-10-15T03:14:55.611Z,66511.97
2022-10-15T03:20:01.067Z,66479.50
2022-10-15T03:25:07.055Z,66530.63
2022-10-15T03:30:12.154Z,66561.81
2022-10-15T03:35:17.559Z,66568.88
2022-10-15T03:40:21.951Z,66553.81
2022-10-15T03:45:30.642Z,66560.28
2022-10-15T03:50:52.568Z,66580.09
2022-10-15T03:56:05.496Z,66553.72
2022-10-15T04:01:11.758Z,66561.34
2022-10-15T04:06:17.198Z,66558.66
2022-10-15T04:11:22.586Z,66581.16
2022-10-15T04:16:36.189Z,66644.13
2022-10-15T04:21:50.222Z,66576.31
2022-10-15T04:27:07.634Z,66571.56
2022-10-15T04:32:14.262Z,66598.88
2022-10-15T04:37:20.563Z,66574.25
2022-10-15T04:42:24.640Z,66620.03
2022-10-15T04:47:29.007Z,66596.28
2022-10-15T04:52:45.035Z,66649.91
2022-10-15T04:57:50.644Z,66630.25
2022-10-15T05:03:01.263Z,66622.09
2022-10-15T05:08:20.442Z,66615.63
2022-10-15T05:13:45.966Z,66621.56
2022-10-15T05:18:51.828Z,66502.69
2022-10-15T05:23:57.174Z,66537.16
2022-10-15T05:29:21.403Z,66580.16
2022-10-15T05:34:26.957Z,66589.84
2022-10-15T05:39:37.641Z,66641.91
2022-10-15T05:44:41.758Z,66743.13
2022-10-15T05:49:45.616Z,66708.63
2022-10-15T05:54:55.727Z,66760.34
2022-10-15T05:59:59.914Z,66855.13
2022-10-15T06:05:05.069Z,66787.72
2022-10-15T06:10:10.590Z,66783.44
2022-10-15T06:15:15.252Z,66755.97
2022-10-15T06:20:22.232Z,66774.34
2022-10-15T06:25:27.604Z,66800.19
2022-10-15T06:30:31.674Z,66781.88
2022-10-15T06:35:36.624Z,66825.50
2022-10-15T06:40:42.198Z,66853.97
2022-10-15T06:45:46.115Z,66889.06
2022-10-15T06:50:54.248Z,66927.41
2022-10-15T06:56:00.143Z,66920.78
2022-10-15T07:01:05.205Z,66910.09
2022-10-15T07:06:10.625Z,66941.34
2022-10-15T07:11:15.874Z,66902.06
2022-10-15T07:16:19.651Z,66948.34
2022-10-15T07:21:23.589Z,67030.81
2022-10-15T07:26:29.332Z,66994.22
2022-10-15T07:31:35.350Z,66968.88
2022-10-15T07:36:39.513Z,67020.03
2022-10-15T07:41:45.716Z,67017.88
2022-10-15T07:46:49.506Z,67064.28
2022-10-15T07:51:53.283Z,66977.94
2022-10-15T07:56:58.316Z,67048.69
2022-10-15T08:02:02.887Z,67083.63
2022-10-15T08:07:09.518Z,66990.00
2022-10-15T08:12:15.919Z,67113.41
2022-10-15T08:17:20.163Z,67121.41
2022-10-15T08:22:26.839Z,67129.00
2022-10-15T08:27:34.360Z,67150.19
2022-10-15T08:32:41.178Z,67100.47
2022-10-15T08:37:44.923Z,67169.63
2022-10-15T08:42:51.106Z,67168.50
2022-10-15T08:47:59.777Z,67270.47
2022-10-15T08:53:03.862Z,67229.50
2022-10-15T08:58:16.242Z,67232.13
2022-10-15T09:03:37.810Z,67217.06
2022-10-15T09:08:51.720Z,67229.34
2022-10-15T09:13:57.160Z,67209.38
2022-10-15T09:19:05.876Z,67238.06
2022-10-15T09:24:13.696Z,67267.25
2022-10-15T09:29:26.196Z,67235.91
2022-10-15T09:34:39.944Z,67255.22
2022-10-15T09:39:57.929Z,67166.31
2022-10-15T09:45:07.237Z,67212.28
2022-10-15T09:50:13.888Z,67238.06
2022-10-15T09:55:33.051Z,67271.56
2022-10-15T10:00:56.693Z,67327.28
2022-10-15T10:06:04.930Z,67251.03
2022-10-15T10:11:13.909Z,67308.75
2022-10-15T10:16:21.154Z,67378.06
2022-10-15T10:21:27.152Z,67307.88
2022-10-15T10:26:36.377Z,67362.88
2022-10-15T10:31:43.874Z,67398.00
2022-10-15T10:36:58.149Z,67392.59
2022-10-15T10:42:05.202Z,67381.34
2022-10-15T10:47:17.707Z,67410.97
2022-10-15T10:52:27.030Z,67433.69
2022-10-15T10:57:43.383Z,67488.84
2022-10-15T11:02:48.871Z,67458.06
2022-10-15T11:08:01.642Z,67330.41
2022-10-15T11:13:21.571Z,67377.00
2022-10-15T11:18:50.708Z,67322.94
2022-10-15T11:24:10.665Z,67351.03
2022-10-15T11:29:25.685Z,67306.19
2022-10-15T11:34:46.013Z,67340.59
2022-10-15T11:40:13.704Z,67358.00
2022-10-15T11:45:36.168Z,67613.38
2022-10-15T11:50:51.328Z,67587.34
2022-10-15T11:56:01.748Z,67685.94
2022-10-15T12:01:14.129Z,67578.75
2022-10-15T12:06:23.006Z,67568.50
2022-10-15T12:11:39.755Z,67611.75
2022-10-15T12:16:53.795Z,67611.22
2022-10-15T12:22:13.653Z,67636.06
2022-10-15T12:27:22.964Z,67568.44
2022-10-15T12:32:29.975Z,67585.78
2022-10-15T12:37:37.123Z,67663.16
2022-10-15T12:42:41.821Z,67691.34
2022-10-15T12:47:50.304Z,67623.06
2022-10-15T12:53:01.773Z,67565.13
2022-10-15T12:58:27.420Z,67744.38
2022-10-15T13:03:36.457Z,67786.63
2022-10-15T13:08:45.778Z,67770.34
2022-10-15T13:13:52.072Z,67637.66
2022-10-15T13:18:57.394Z,67412.66
2022-10-15T13:24:04.793Z,67415.78
2022-10-15T13:29:17.271Z,67423.97
2022-10-15T13:34:27.477Z,67425.69
2022-10-15T13:47:04.872Z,67539.16
2022-10-15T13:52:11.678Z,67594.91
2022-10-15T13:57:18.602Z,67513.72
2022-10-15T14:02:24.630Z,67294.72
2022-10-15T14:07:28.940Z,67214.38
2022-10-15T14:12:33.535Z,67179.75
2022-10-15T14:17:39.254Z,67207.22
2022-10-15T14:22:43.301Z,67207.56
2022-10-15T14:27:47.507Z,67293.78
2022-10-15T14:32:52.984Z,67270.47
2022-10-15T14:38:01.702Z,67257.56
2022-10-15T14:43:07.848Z,67255.91
2022-10-15T14:48:19.778Z,67237.00
2022-10-15T14:53:28.522Z,67267.25
2022-10-15T14:58:32.646Z,67241.84
2022-10-15T15:03:42.730Z,67184.66
2022-10-15T15:08:46.903Z,67206.75
2022-10-15T15:13:52.392Z,67177.59
2022-10-15T15:18:58.497Z,67188.31
2022-10-15T15:24:02.598Z,67169.56
2022-10-15T15:34:30.884Z,67122.53
2022-10-15T15:39:34.840Z,67091.25
2022-10-15T15:44:38.734Z,67065.00
2022-10-15T15:49:44.182Z,66963.97
2022-10-15T15:54:48.350Z,66941.19
2022-10-15T15:59:52.333Z,66900.84
2022-10-15T16:04:57.815Z,66981.22
2022-10-15T16:10:02.027Z,67018.41
2022-10-15T16:15:07.916Z,67028.13
2022-10-15T16:20:15.799Z,67088.47
2022-10-15T16:25:20.676Z,67081.59
2022-10-15T16:30:24.783Z,67040.59
2022-10-15T16:35:30.235Z,67062.13
2022-10-15T16:40:34.786Z,67061.03
2022-10-15T16:45:39.250Z,67018.41
2022-10-15T16:50:44.722Z,67042.75
2022-10-15T16:55:48.750Z,67037.31
2022-10-15T17:00:52.932Z,67017.88
2022-10-15T17:05:59.585Z,66987.09
2022-10-15T17:11:03.907Z,66971.50
2022-10-15T17:16:15.876Z,66938.09
2022-10-15T17:21:23.331Z,66987.16
2022-10-15T17:26:33.904Z,66918.63
2022-10-15T17:31:39.956Z,66908.44
2022-10-15T17:36:47.760Z,66921.84
2022-10-15T17:41:52.989Z,66911.59
2022-10-15T17:46:57.002Z,66823.97
2022-10-15T17:52:10.308Z,66794.72
2022-10-15T17:57:14.454Z,66828.81
2022-10-15T18:02:18.483Z,66878.28
2022-10-15T18:07:24.683Z,66855.66
2022-10-15T18:12:29.011Z,66894.50
2022-10-15T18:17:33.028Z,66885.81
2022-10-15T18:22:38.491Z,66923.06
2022-10-15T18:27:42.766Z,66923.47
2022-10-15T18:32:46.749Z,66898.22
2022-10-15T18:37:54.671Z,66897.22
2022-10-15T18:42:59.113Z,66958.59
2022-10-15T18:48:07.045Z,66923.00
2022-10-15T18:53:12.827Z,66935.81
2022-10-15T18:58:16.511Z,66954.81
2022-10-15T19:03:20.524Z,66900.44
2022-10-15T19:08:26.411Z,66864.81
2022-10-15T19:13:30.758Z,66881.00
2022-10-15T19:18:36.972Z,66894.03
2022-10-15T19:23:42.694Z,66890.06
2022-10-15T19:28:47.303Z,66882.06
2022-10-15T19:33:51.405Z,66858.97
2022-10-15T19:38:58.124Z,66855.13
2022-10-15T19:44:08.039Z,66823.81
2022-10-15T19:49:13.700Z,66859.44
2022-10-15T19:54:18.975Z,66833.06
2022-10-15T19:59:23.350Z,66841.59
2022-10-15T20:04:29.481Z,66828.81
2022-10-15T20:09:34.963Z,66825.97
2022-10-15T20:14:38.890Z,66898.22
2022-10-15T20:19:42.856Z,66879.28
2022-10-15T20:24:48.103Z,66893.91
2022-10-15T20:29:52.118Z,66849.75
2022-10-15T20:34:56.201Z,66826.03
2022-10-15T20:40:01.571Z,66795.25
2022-10-15T20:45:06.219Z,66759.22
2022-10-15T20:50:15.321Z,66757.13
2022-10-15T20:55:21.178Z,66774.97
2022-10-15T21:00:24.844Z,66750.97
2022-10-15T21:05:29.449Z,66730.16
2022-10-15T21:10:34.805Z,66716.25
2022-10-15T21:15:38.795Z,66749.06
2022-10-15T21:20:42.672Z,66762.50
2022-10-15T21:25:48.535Z,66757.75
2022-10-15T21:30:52.472Z,66766.81
2022-10-15T21:35:56.345Z,66734.97
2022-10-15T21:41:01.763Z,66802.81
2022-10-15T21:46:07.237Z,66767.75
2022-10-15T21:51:13.265Z,66779.19
2022-10-15T21:56:20.036Z,66773.81
2022-10-15T22:01:25.669Z,66784.13
2022-10-15T22:06:29.955Z,66721.59
2022-10-15T22:11:38.789Z,66745.91
2022-10-15T22:16:46.319Z,66697.94
2022-10-15T22:21:50.333Z,66676.41
2022-10-15T22:26:55.693Z,66738.38
2022-10-15T22:31:59.674Z,66743.06
2022-10-15T22:37:03.681Z,66787.28
2022-10-15T22:42:09.579Z,66691.47
2022-10-15T22:47:13.629Z,66689.97
2022-10-15T22:52:20.133Z,66635.00
2022-10-15T22:57:25.476Z,66662.44
2022-10-15T23:02:29.329Z,66668.44
2022-10-15T23:07:33.205Z,66666.72
2022-10-15T23:12:40.150Z,66642.53
2022-10-15T23:17:43.994Z,66701.16
2022-10-15T23:22:47.963Z,66687.78
2022-10-15T23:27:53.205Z,66663.50
2022-10-15T23:32:57.240Z,66644.59
2022-10-15T23:38:01.105Z,66715.22
2022-10-15T23:43:06.651Z,66647.34
2022-10-15T23:48:10.558Z,66616.19
2022-10-15T23:53:14.509Z,66585.63
2022-10-15T23:58:20.205Z,66628.94
